sensor_id;sensor_type;location;lat;lon;timestamp;pressure;altitude;pressure_sealevel;temperature;humidity
47815;BME280;33579;50.058;18.130;2022-09-06T00:01:06;99890.69;;;15.58;100.00
47815;BME280;33579;50.058;18.130;2022-09-06T00:02:08;99887.72;;;15.61;100.00
47815;BME280;33579;50.058;18.130;2022-09-06T00:03:09;99888.34;;;15.55;100.00
47815;BME280;33579;50.058;18.130;2022-09-06T00:04:11;99885.31;;;15.50;100.00
47815;BME280;33579;50.058;18.130;2022-09-06T00:05:16;99886.56;;;15.45;100.00
47815;BME280;33579;50.058;18.130;2022-09-06T00:06:18;99885.44;;;15.48;100.00
47815;BME280;33579;50.058;18.130;2022-09-06T00:07:20;99887.56;;;15.44;100.00
47815;BME280;33579;50.058;18.130;2022-09-06T00:08:22;99891.31;;;15.42;100.00
47815;BME280;33579;50.058;18.130;2022-09-06T00:09:23;99891.50;;;15.40;100.00
47815;BME280;33579;50.058;18.130;2022-09-06T00:10:25;99894.72;;;15.34;100.00
47815;BME280;33579;50.058;18.130;2022-09-06T00:11:27;99896.38;;;15.35;100.00
47815;BME280;33579;50.058;18.130;2022-09-06T00:12:28;99891.09;;;15.35;100.00
47815;BME280;33579;50.058;18.130;2022-09-06T00:13:30;99894.28;;;15.39;100.00
47815;BME280;33579;50.058;18.130;2022-09-06T00:14:32;99896.94;;;15.39;100.00
47815;BME280;33579;50.058;18.130;2022-09-06T00:15:35;99897.81;;;15.29;100.00
47815;BME280;33579;50.058;18.130;2022-09-06T00:16:36;99895.75;;;15.23;100.00
47815;BME280;33579;50.058;18.130;2022-09-06T00:17:38;99900.09;;;15.24;100.00
47815;BME280;33579;50.058;18.130;2022-09-06T00:18:40;99902.59;;;15.26;100.00
47815;BME280;33579;50.058;18.130;2022-09-06T00:19:42;99900.47;;;15.29;100.00
47815;BME280;33579;50.058;18.130;2022-09-06T00:20:44;99900.63;;;15.28;100.00
47815;BME280;33579;50.058;18.130;2022-09-06T00:21:45;99893.66;;;15.27;100.00
47815;BME280;33579;50.058;18.130;2022-09-06T00:22:47;99897.81;;;15.29;100.00
47815;BME280;33579;50.058;18.130;2022-09-06T00:23:49;99898.78;;;15.28;100.00
47815;BME280;33579;50.058;18.130;2022-09-06T00:24:51;99903.66;;;15.33;100.00
47815;BME280;33579;50.058;18.130;2022-09-06T00:25:52;99905.75;;;15.39;100.00
47815;BME280;33579;50.058;18.130;2022-09-06T00:26:54;99901.88;;;15.24;100.00
47815;BME280;33579;50.058;18.130;2022-09-06T00:28:00;99904.63;;;15.04;100.00
47815;BME280;33579;50.058;18.130;2022-09-06T00:29:02;99908.50;;;15.10;100.00
47815;BME280;33579;50.058;18.130;2022-09-06T00:30:03;99907.78;;;15.17;100.00
47815;BME280;33579;50.058;18.130;2022-09-06T00:31:13;99907.03;;;15.25;100.00
47815;BME280;33579;50.058;18.130;2022-09-06T00:32:15;99903.03;;;15.21;100.00
47815;BME280;33579;50.058;18.130;2022-09-06T00:33:16;99902.88;;;15.23;100.00
47815;BME280;33579;50.058;18.130;2022-09-06T00:34:19;99897.66;;;15.03;100.00
47815;BME280;33579;50.058;18.130;2022-09-06T00:35:22;99899.94;;;14.88;100.00
47815;BME280;33579;50.058;18.130;2022-09-06T00:36:24;99900.78;;;14.79;100.00
47815;BME280;33579;50.058;18.130;2022-09-06T00:37:25;99900.53;;;14.62;100.00
47815;BME280;33579;50.058;18.130;2022-09-06T00:38:27;99902.38;;;14.52;100.00
47815;BME280;33579;50.058;18.130;2022-09-06T00:39:29;99902.78;;;14.47;100.00
47815;BME280;33579;50.058;18.130;2022-09-06T00:40:32;99911.41;;;14.49;100.00
47815;BME280;33579;50.058;18.130;2022-09-06T00:41:34;99904.63;;;14.46;100.00
47815;BME280;33579;50.058;18.130;2022-09-06T00:42:36;99909.19;;;14.44;100.00
47815;BME280;33579;50.058;18.130;2022-09-06T00:43:37;99910.59;;;14.48;100.00
47815;BME280;33579;50.058;18.130;2022-09-06T00:44:39;99906.69;;;14.53;100.00
47815;BME280;33579;50.058;18.130;2022-09-06T00:45:41;99902.34;;;14.61;100.00
47815;BME280;33579;50.058;18.130;2022-09-06T00:46:45;99896.22;;;14.61;100.00
47815;BME280;33579;50.058;18.130;2022-09-06T00:47:48;99896.06;;;14.62;100.00
47815;BME280;33579;50.058;18.130;2022-09-06T00:48:53;99905.69;;;14.64;100.00
47815;BME280;33579;50.058;18.130;2022-09-06T00:49:57;99897.88;;;14.62;100.00
47815;BME280;33579;50.058;18.130;2022-09-06T00:51:01;99899.16;;;14.58;100.00
47815;BME280;33579;50.058;18.130;2022-09-06T00:52:09;99894.88;;;14.37;100.00
47815;BME280;33579;50.058;18.130;2022-09-06T00:53:12;99901.44;;;14.33;100.00
47815;BME280;33579;50.058;18.130;2022-09-06T00:54:13;99906.16;;;14.19;100.00
47815;BME280;33579;50.058;18.130;2022-09-06T00:55:15;99906.72;;;14.13;100.00
47815;BME280;33579;50.058;18.130;2022-09-06T00:56:17;99897.25;;;14.11;100.00
47815;BME280;33579;50.058;18.130;2022-09-06T00:57:19;99905.88;;;14.13;100.00
47815;BME280;33579;50.058;18.130;2022-09-06T00:58:21;99904.63;;;14.07;100.00
47815;BME280;33579;50.058;18.130;2022-09-06T00:59:24;99903.09;;;14.04;100.00
47815;BME280;33579;50.058;18.130;2022-09-06T01:00:27;99900.31;;;14.06;100.00
47815;BME280;33579;50.058;18.130;2022-09-06T01:01:28;99901.03;;;14.08;100.00
47815;BME280;33579;50.058;18.130;2022-09-06T01:02:30;99900.16;;;14.08;100.00
47815;BME280;33579;50.058;18.130;2022-09-06T01:03:32;99914.25;;;14.18;100.00
47815;BME280;33579;50.058;18.130;2022-09-06T01:04:37;99905.31;;;14.19;100.00
47815;BME280;33579;50.058;18.130;2022-09-06T01:07:09;99917.88;;;14.17;100.00
47815;BME280;33579;50.058;18.130;2022-09-06T01:08:28;99908.94;;;14.18;100.00
47815;BME280;33579;50.058;18.130;2022-09-06T01:12:27;99906.97;;;14.30;100.00
47815;BME280;33579;50.058;18.130;2022-09-06T01:13:39;99901.16;;;14.26;100.00
47815;BME280;33579;50.058;18.130;2022-09-06T01:15:06;99896.00;;;14.15;100.00
47815;BME280;33579;50.058;18.130;2022-09-06T01:19:11;99908.22;;;14.06;100.00
47815;BME280;33579;50.058;18.130;2022-09-06T01:20:38;99899.75;;;14.02;100.00
47815;BME280;33579;50.058;18.130;2022-09-06T01:21:54;99895.16;;;14.04;100.00
47815;BME280;33579;50.058;18.130;2022-09-06T01:26:14;99903.09;;;14.04;100.00
47815;BME280;33579;50.058;18.130;2022-09-06T01:28:49;99895.84;;;14.07;100.00
47815;BME280;33579;50.058;18.130;2022-09-06T01:29:55;99896.25;;;14.12;100.00
47815;BME280;33579;50.058;18.130;2022-09-06T01:31:18;99893.63;;;14.22;100.00
47815;BME280;33579;50.058;18.130;2022-09-06T01:32:29;99893.47;;;14.23;100.00
47815;BME280;33579;50.058;18.130;2022-09-06T01:35:04;99888.63;;;14.28;100.00
47815;BME280;33579;50.058;18.130;2022-09-06T01:36:11;99886.94;;;14.27;100.00
47815;BME280;33579;50.058;18.130;2022-09-06T01:37:17;99890.97;;;14.31;100.00
47815;BME280;33579;50.058;18.130;2022-09-06T01:38:19;99891.78;;;14.32;100.00
47815;BME280;33579;50.058;18.130;2022-09-06T01:39:28;99894.31;;;14.33;100.00
47815;BME280;33579;50.058;18.130;2022-09-06T01:40:30;99886.50;;;14.32;100.00
47815;BME280;33579;50.058;18.130;2022-09-06T01:41:32;99884.56;;;14.34;100.00
47815;BME280;33579;50.058;18.130;2022-09-06T01:42:34;99887.22;;;14.34;100.00
47815;BME280;33579;50.058;18.130;2022-09-06T01:43:39;99886.25;;;14.35;100.00
47815;BME280;33579;50.058;18.130;2022-09-06T01:44:45;99879.97;;;14.36;100.00
47815;BME280;33579;50.058;18.130;2022-09-06T01:47:38;99881.75;;;14.36;100.00
47815;BME280;33579;50.058;18.130;2022-09-06T01:50:33;99879.41;;;14.32;100.00
47815;BME280;33579;50.058;18.130;2022-09-06T01:53:14;99880.66;;;14.38;100.00
47815;BME280;33579;50.058;18.130;2022-09-06T01:55:56;99868.25;;;14.39;100.00
47815;BME280;33579;50.058;18.130;2022-09-06T01:57:14;99876.59;;;14.44;100.00
47815;BME280;33579;50.058;18.130;2022-09-06T02:00:16;99871.88;;;14.47;100.00
47815;BME280;33579;50.058;18.130;2022-09-06T02:04:40;99880.94;;;14.35;100.00
47815;BME280;33579;50.058;18.130;2022-09-06T02:07:17;99877.03;;;13.80;100.00
47815;BME280;33579;50.058;18.130;2022-09-06T02:08:31;99877.31;;;13.67;100.00
47815;BME280;33579;50.058;18.130;2022-09-06T02:09:37;99874.63;;;13.57;100.00
47815;BME280;33579;50.058;18.130;2022-09-06T02:10:48;99880.50;;;13.61;100.00
47815;BME280;33579;50.058;18.130;2022-09-06T02:11:58;99883.19;;;13.71;100.00
47815;BME280;33579;50.058;18.130;2022-09-06T02:13:03;99879.69;;;13.80;100.00
47815;BME280;33579;50.058;18.130;2022-09-06T02:14:11;99880.41;;;13.92;100.00
47815;BME280;33579;50.058;18.130;2022-09-06T02:15:20;99879.41;;;14.03;100.00
47815;BME280;33579;50.058;18.130;2022-09-06T02:16:25;99878.59;;;14.12;100.00
47815;BME280;33579;50.058;18.130;2022-09-06T02:17:34;99877.34;;;14.07;100.00
47815;BME280;33579;50.058;18.130;2022-09-06T02:18:52;99881.09;;;13.84;100.00
47815;BME280;33579;50.058;18.130;2022-09-06T02:20:07;99877.19;;;13.79;100.00
47815;BME280;33579;50.058;18.130;2022-09-06T02:21:12;99879.69;;;13.80;100.00
47815;BME280;33579;50.058;18.130;2022-09-06T02:22:18;99879.81;;;13.69;100.00
47815;BME280;33579;50.058;18.130;2022-09-06T02:23:24;99873.25;;;13.63;100.00
47815;BME280;33579;50.058;18.130;2022-09-06T02:24:29;99881.06;;;13.65;100.00
47815;BME280;33579;50.058;18.130;2022-09-06T02:25:41;99880.78;;;13.68;100.00
47815;BME280;33579;50.058;18.130;2022-09-06T02:26:44;99873.81;;;13.67;100.00
47815;BME280;33579;50.058;18.130;2022-09-06T02:27:46;99877.31;;;13.77;100.00
47815;BME280;33579;50.058;18.130;2022-09-06T02:28:48;99877.19;;;13.88;100.00
47815;BME280;33579;50.058;18.130;2022-09-06T02:29:50;99875.94;;;13.93;100.00
47815;BME280;33579;50.058;18.130;2022-09-06T02:30:56;99880.97;;;13.96;100.00
47815;BME280;33579;50.058;18.130;2022-09-06T02:32:18;99879.41;;;14.03;100.00
47815;BME280;33579;50.058;18.130;2022-09-06T02:33:23;99875.66;;;14.05;100.00
47815;BME280;33579;50.058;18.130;2022-09-06T02:34:26;99887.94;;;13.97;100.00
47815;BME280;33579;50.058;18.130;2022-09-06T02:35:27;99880.53;;;13.90;100.00
47815;BME280;33579;50.058;18.130;2022-09-06T02:36:30;99881.50;;;13.80;100.00
47815;BME280;33579;50.058;18.130;2022-09-06T02:37:33;99879.00;;;13.78;100.00
47815;BME280;33579;50.058;18.130;2022-09-06T02:38:37;99882.59;;;13.77;100.00
47815;BME280;33579;50.058;18.130;2022-09-06T02:39:40;99884.28;;;13.78;100.00
47815;BME280;33579;50.058;18.130;2022-09-06T02:40:43;99882.47;;;13.79;100.00
47815;BME280;33579;50.058;18.130;2022-09-06T02:41:46;99883.88;;;13.83;100.00
47815;BME280;33579;50.058;18.130;2022-09-06T02:42:47;99884.44;;;13.86;100.00
47815;BME280;33579;50.058;18.130;2022-09-06T02:43:49;99878.72;;;13.81;100.00
47815;BME280;33579;50.058;18.130;2022-09-06T02:44:50;99881.34;;;13.81;100.00
47815;BME280;33579;50.058;18.130;2022-09-06T02:45:52;99881.34;;;13.81;100.00
47815;BME280;33579;50.058;18.130;2022-09-06T02:46:54;99882.19;;;13.82;100.00
47815;BME280;33579;50.058;18.130;2022-09-06T02:47:57;99881.91;;;13.75;100.00
47815;BME280;33579;50.058;18.130;2022-09-06T02:48:59;99883.47;;;13.77;100.00
47815;BME280;33579;50.058;18.130;2022-09-06T02:50:00;99892.09;;;13.80;100.00
47815;BME280;33579;50.058;18.130;2022-09-06T02:51:06;99889.00;;;13.74;100.00
47815;BME280;33579;50.058;18.130;2022-09-06T02:52:08;99891.81;;;13.73;100.00
47815;BME280;33579;50.058;18.130;2022-09-06T02:53:12;99891.81;;;13.73;100.00
47815;BME280;33579;50.058;18.130;2022-09-06T02:54:14;99892.91;;;13.70;100.00
47815;BME280;33579;50.058;18.130;2022-09-06T02:55:15;99899.84;;;13.71;100.00
47815;BME280;33579;50.058;18.130;2022-09-06T02:56:17;99892.22;;;13.68;100.00
47815;BME280;33579;50.058;18.130;2022-09-06T02:57:18;99890.38;;;13.69;100.00
47815;BME280;33579;50.058;18.130;2022-09-06T02:58:20;99892.63;;;13.73;100.00
47815;BME280;33579;50.058;18.130;2022-09-06T02:59:21;99888.03;;;13.75;100.00
47815;BME280;33579;50.058;18.130;2022-09-06T03:00:23;99886.34;;;13.74;100.00
47815;BME280;33579;50.058;18.130;2022-09-06T03:01:25;99890.53;;;13.77;100.00
47815;BME280;33579;50.058;18.130;2022-09-06T03:02:27;99885.25;;;13.77;100.00
47815;BME280;33579;50.058;18.130;2022-09-06T03:03:28;99879.84;;;13.79;100.00
47815;BME280;33579;50.058;18.130;2022-09-06T03:04:30;99881.91;;;13.75;100.00
47815;BME280;33579;50.058;18.130;2022-09-06T03:05:32;99884.97;;;13.80;100.00
47815;BME280;33579;50.058;18.130;2022-09-06T03:06:33;99881.34;;;13.81;100.00
47815;BME280;33579;50.058;18.130;2022-09-06T03:07:35;99879.44;;;13.83;100.00
47815;BME280;33579;50.058;18.130;2022-09-06T03:08:36;99870.78;;;13.81;100.00
47815;BME280;33579;50.058;18.130;2022-09-06T03:09:38;99869.66;;;13.84;100.00
47815;BME280;33579;50.058;18.130;2022-09-06T03:10:39;99864.38;;;13.84;100.00
47815;BME280;33579;50.058;18.130;2022-09-06T03:11:41;99867.88;;;13.84;100.00
47815;BME280;33579;50.058;18.130;2022-09-06T03:12:43;99864.25;;;13.85;100.00
47815;BME280;33579;50.058;18.130;2022-09-06T03:13:45;99872.88;;;13.87;100.00
47815;BME280;33579;50.058;18.130;2022-09-06T03:14:46;99869.13;;;13.90;100.00
47815;BME280;33579;50.058;18.130;2022-09-06T03:15:55;99867.44;;;13.89;100.00
47815;BME280;33579;50.058;18.130;2022-09-06T03:16:58;99870.94;;;13.89;100.00
47815;BME280;33579;50.058;18.130;2022-09-06T03:17:59;99877.88;;;13.90;100.00
47815;BME280;33579;50.058;18.130;2022-09-06T03:19:01;99865.75;;;13.88;100.00
47815;BME280;33579;50.058;18.130;2022-09-06T03:20:03;99867.44;;;13.89;100.00
47815;BME280;33579;50.058;18.130;2022-09-06T03:21:05;99868.84;;;13.93;100.00
47815;BME280;33579;50.058;18.130;2022-09-06T03:22:07;99865.50;;;13.91;100.00
47815;BME280;33579;50.058;18.130;2022-09-06T03:23:08;99868.00;;;13.93;100.00
47815;BME280;33579;50.058;18.130;2022-09-06T03:24:10;99866.63;;;13.88;100.00
47815;BME280;33579;50.058;18.130;2022-09-06T03:25:11;99859.94;;;13.84;100.00
47815;BME280;33579;50.058;18.130;2022-09-06T03:26:13;99860.91;;;13.83;100.00
47815;BME280;33579;50.058;18.130;2022-09-06T03:27:14;99864.25;;;13.85;100.00
47815;BME280;33579;50.058;18.130;2022-09-06T03:28:16;99862.44;;;13.86;100.00
47815;BME280;33579;50.058;18.130;2022-09-06T03:29:18;99859.94;;;13.84;100.00
47815;BME280;33579;50.058;18.130;2022-09-06T03:30:20;99862.31;;;13.77;100.00
47815;BME280;33579;50.058;18.130;2022-09-06T03:31:21;99862.16;;;13.79;100.00
47815;BME280;33579;50.058;18.130;2022-09-06T03:32:23;99854.50;;;13.76;100.00
47815;BME280;33579;50.058;18.130;2022-09-06T03:33:25;99865.06;;;13.76;100.00
47815;BME280;33579;50.058;18.130;2022-09-06T03:34:26;99858.53;;;13.70;100.00
47815;BME280;33579;50.058;18.130;2022-09-06T03:35:28;99862.28;;;13.68;100.00
47815;BME280;33579;50.058;18.130;2022-09-06T03:36:30;99866.75;;;13.67;100.00
47815;BME280;33579;50.058;18.130;2022-09-06T03:37:31;99867.97;;;13.63;100.00
47815;BME280;33579;50.058;18.130;2022-09-06T03:38:33;99864.91;;;13.58;100.00
47815;BME280;33579;50.058;18.130;2022-09-06T03:39:34;99866.16;;;13.54;100.00
47815;BME280;33579;50.058;18.130;2022-09-06T03:40:36;99869.78;;;13.53;100.00
47815;BME280;33579;50.058;18.130;2022-09-06T03:41:37;99864.06;;;13.47;100.00
47815;BME280;33579;50.058;18.130;2022-09-06T03:42:39;99870.19;;;13.48;100.00
47815;BME280;33579;50.058;18.130;2022-09-06T03:43:40;99874.06;;;13.44;100.00
47815;BME280;33579;50.058;18.130;2022-09-06T03:44:42;99866.97;;;13.44;100.00
47815;BME280;33579;50.058;18.130;2022-09-06T03:45:48;99862.75;;;13.42;100.00
47815;BME280;33579;50.058;18.130;2022-09-06T03:46:50;99863.25;;;13.47;100.00
47815;BME280;33579;50.058;18.130;2022-09-06T03:47:52;99862.63;;;13.43;100.00
47815;BME280;33579;50.058;18.130;2022-09-06T03:48:53;99861.78;;;13.43;100.00
47815;BME280;33579;50.058;18.130;2022-09-06T03:49:55;99863.72;;;13.41;100.00
47815;BME280;33579;50.058;18.130;2022-09-06T03:50:57;99863.03;;;13.39;100.00
47815;BME280;33579;50.058;18.130;2022-09-06T03:51:59;99865.09;;;13.35;100.00
47815;BME280;33579;50.058;18.130;2022-09-06T03:53:00;99866.09;;;13.34;100.00
47815;BME280;33579;50.058;18.130;2022-09-06T03:54:02;99863.31;;;13.35;100.00
47815;BME280;33579;50.058;18.130;2022-09-06T03:55:05;99867.63;;;13.37;100.00
47815;BME280;33579;50.058;18.130;2022-09-06T03:56:06;99864.69;;;13.30;100.00
47815;BME280;33579;50.058;18.130;2022-09-06T03:57:08;99866.19;;;13.32;100.00
47815;BME280;33579;50.058;18.130;2022-09-06T03:58:10;99867.47;;;13.38;100.00
47815;BME280;33579;50.058;18.130;2022-09-06T03:59:12;99865.41;;;13.42;100.00
47815;BME280;33579;50.058;18.130;2022-09-06T04:00:14;99867.91;;;13.43;100.00
47815;BME280;33579;50.058;18.130;2022-09-06T04:01:15;99865.28;;;13.43;100.00
47815;BME280;33579;50.058;18.130;2022-09-06T04:02:17;99853.16;;;13.41;100.00
47815;BME280;33579;50.058;18.130;2022-09-06T04:03:18;99858.97;;;13.25;100.00
47815;BME280;33579;50.058;18.130;2022-09-06T04:04:20;99867.03;;;13.23;100.00
47815;BME280;33579;50.058;18.130;2022-09-06T04:05:21;99859.91;;;13.14;100.00
47815;BME280;33579;50.058;18.130;2022-09-06T04:06:23;99855.28;;;13.06;100.00
47815;BME280;33579;50.058;18.130;2022-09-06T04:07:24;99864.31;;;13.03;100.00
47815;BME280;33579;50.058;18.130;2022-09-06T04:08:26;99862.53;;;13.04;100.00
47815;BME280;33579;50.058;18.130;2022-09-06T04:09:28;99858.06;;;13.04;100.00
47815;BME280;33579;50.058;18.130;2022-09-06T04:10:30;99861.28;;;13.08;100.00
47815;BME280;33579;50.058;18.130;2022-09-06T04:11:32;99865.06;;;13.15;100.00
47815;BME280;33579;50.058;18.130;2022-09-06T04:12:33;99859.78;;;13.15;100.00
47815;BME280;33579;50.058;18.130;2022-09-06T04:13:35;99861.31;;;13.18;100.00
47815;BME280;33579;50.058;18.130;2022-09-06T04:14:37;99863.94;;;13.18;100.00
47815;BME280;33579;50.058;18.130;2022-09-06T04:15:39;99865.88;;;13.16;100.00
47815;BME280;33579;50.058;18.130;2022-09-06T04:16:40;99861.69;;;13.13;100.00
47815;BME280;33579;50.058;18.130;2022-09-06T04:17:43;99864.75;;;13.08;100.00
47815;BME280;33579;50.058;18.130;2022-09-06T04:18:44;99864.44;;;13.02;100.00
47815;BME280;33579;50.058;18.130;2022-09-06T04:19:46;99867.22;;;13.00;100.00
47815;BME280;33579;50.058;18.130;2022-09-06T04:20:49;99860.78;;;12.93;100.00
47815;BME280;33579;50.058;18.130;2022-09-06T04:21:50;99862.47;;;12.94;100.00
47815;BME280;33579;50.058;18.130;2022-09-06T04:22:52;99858.22;;;13.03;100.00
47815;BME280;33579;50.058;18.130;2022-09-06T04:23:54;99861.41;;;13.06;100.00
47815;BME280;33579;50.058;18.130;2022-09-06T04:24:55;99855.88;;;13.10;100.00
47815;BME280;33579;50.058;18.130;2022-09-06T04:25:58;99865.72;;;13.07;100.00
47815;BME280;33579;50.058;18.130;2022-09-06T04:26:59;99863.34;;;13.04;100.00
47815;BME280;33579;50.058;18.130;2022-09-06T04:28:01;99863.22;;;13.06;100.00
47815;BME280;33579;50.058;18.130;2022-09-06T04:29:03;99860.13;;;13.01;100.00
47815;BME280;33579;50.058;18.130;2022-09-06T04:30:05;99862.66;;;13.02;100.00
47815;BME280;33579;50.058;18.130;2022-09-06T04:31:06;99871.41;;;13.03;100.00
47815;BME280;33579;50.058;18.130;2022-09-06T04:32:08;99865.56;;;12.99;100.00
47815;BME280;33579;50.058;18.130;2022-09-06T04:33:10;99868.44;;;12.96;100.00
47815;BME280;33579;50.058;18.130;2022-09-06T04:34:11;99879.97;;;12.95;100.00
47815;BME280;33579;50.058;18.130;2022-09-06T04:35:13;99877.22;;;12.97;100.00
47815;BME280;33579;50.058;18.130;2022-09-06T04:36:14;99872.78;;;12.97;100.00
47815;BME280;33579;50.058;18.130;2022-09-06T04:37:16;99885.84;;;12.99;100.00
47815;BME280;33579;50.058;18.130;2022-09-06T04:38:18;99884.47;;;13.04;100.00
47815;BME280;33579;50.058;18.130;2022-09-06T04:39:19;99879.47;;;13.01;100.00
47815;BME280;33579;50.058;18.130;2022-09-06T04:40:21;99882.69;;;13.05;100.00
47815;BME280;33579;50.058;18.130;2022-09-06T04:41:22;99879.78;;;13.08;100.00
47815;BME280;33579;50.058;18.130;2022-09-06T04:42:24;99882.84;;;13.13;100.00
47815;BME280;33579;50.058;18.130;2022-09-06T04:43:25;99882.03;;;13.23;100.00
47815;BME280;33579;50.058;18.130;2022-09-06T04:44:27;99877.91;;;13.30;100.00
47815;BME280;33579;50.058;18.130;2022-09-06T04:45:28;99890.00;;;13.32;100.00
47815;BME280;33579;50.058;18.130;2022-09-06T04:46:30;99878.47;;;13.33;100.00
47815;BME280;33579;50.058;18.130;2022-09-06T04:47:31;99879.69;;;13.29;100.00
47815;BME280;33579;50.058;18.130;2022-09-06T04:48:33;99887.03;;;13.26;100.00
47815;BME280;33579;50.058;18.130;2022-09-06T04:49:35;99880.78;;;13.27;100.00
47815;BME280;33579;50.058;18.130;2022-09-06T04:50:36;99888.72;;;13.27;100.00
47815;BME280;33579;50.058;18.130;2022-09-06T04:51:38;99887.34;;;13.32;100.00
47815;BME280;33579;50.058;18.130;2022-09-06T04:52:40;99881.94;;;13.34;100.00
47815;BME280;33579;50.058;18.130;2022-09-06T04:53:41;99888.63;;;13.38;100.00
47815;BME280;33579;50.058;18.130;2022-09-06T04:54:44;99890.16;;;13.41;100.00
47815;BME280;33579;50.058;18.130;2022-09-06T04:55:45;99886.53;;;13.42;100.00
47815;BME280;33579;50.058;18.130;2022-09-06T04:56:47;99884.63;;;13.44;100.00
47815;BME280;33579;50.058;18.130;2022-09-06T04:57:48;99889.22;;;13.52;100.00
47815;BME280;33579;50.058;18.130;2022-09-06T04:58:53;99891.34;;;13.58;100.00
47815;BME280;33579;50.058;18.130;2022-09-06T04:59:55;99885.66;;;13.62;100.00
47815;BME280;33579;50.058;18.130;2022-09-06T05:00:56;99881.06;;;13.65;100.00
47815;BME280;33579;50.058;18.130;2022-09-06T05:01:58;99881.34;;;13.71;100.00
47815;BME280;33579;50.058;18.130;2022-09-06T05:03:00;99883.88;;;13.83;100.00
47815;BME280;33579;50.058;18.130;2022-09-06T05:04:01;99887.78;;;13.88;100.00
47815;BME280;33579;50.058;18.130;2022-09-06T05:05:03;99890.00;;;13.93;100.00
47815;BME280;33579;50.058;18.130;2022-09-06T05:06:08;99886.38;;;14.04;100.00
47815;BME280;33579;50.058;18.130;2022-09-06T05:07:10;99889.44;;;14.19;100.00
47815;BME280;33579;50.058;18.130;2022-09-06T05:08:12;99882.91;;;14.33;100.00
47815;BME280;33579;50.058;18.130;2022-09-06T05:09:13;99879.81;;;14.47;100.00
47815;BME280;33579;50.058;18.130;2022-09-06T05:10:15;99878.38;;;14.63;100.00
47815;BME280;33579;50.058;18.130;2022-09-06T05:11:17;99877.13;;;14.77;100.00
47815;BME280;33579;50.058;18.130;2022-09-06T05:12:18;99877.47;;;14.92;100.00
47815;BME280;33579;50.058;18.130;2022-09-06T05:13:20;99873.81;;;15.03;100.00
47815;BME280;33579;50.058;18.130;2022-09-06T05:14:21;99880.19;;;15.10;100.00
47815;BME280;33579;50.058;18.130;2022-09-06T05:15:23;99875.44;;;15.14;100.00
47815;BME280;33579;50.058;18.130;2022-09-06T05:16:25;99878.50;;;15.09;100.00
47815;BME280;33579;50.058;18.130;2022-09-06T05:17:26;99870.56;;;15.09;100.00
47815;BME280;33579;50.058;18.130;2022-09-06T05:18:28;99881.03;;;15.11;100.00
47815;BME280;33579;50.058;18.130;2022-09-06T05:19:30;99872.22;;;15.10;100.00
47815;BME280;33579;50.058;18.130;2022-09-06T05:20:31;99880.72;;;15.14;100.00
47815;BME280;33579;50.058;18.130;2022-09-06T05:21:33;99872.78;;;15.14;100.00
47815;BME280;33579;50.058;18.130;2022-09-06T05:22:35;99872.22;;;15.20;100.00
47815;BME280;33579;50.058;18.130;2022-09-06T05:23:36;99880.84;;;15.22;100.00
47815;BME280;33579;50.058;18.130;2022-09-06T05:24:38;99875.00;;;15.18;100.00
47815;BME280;33579;50.058;18.130;2022-09-06T05:25:39;99874.69;;;15.22;100.00
47815;BME280;33579;50.058;18.130;2022-09-06T05:26:41;99873.88;;;15.21;100.00
47815;BME280;33579;50.058;18.130;2022-09-06T05:27:42;99877.88;;;15.25;100.00
47815;BME280;33579;50.058;18.130;2022-09-06T05:28:44;99873.44;;;15.26;100.00
47815;BME280;33579;50.058;18.130;2022-09-06T05:29:45;99870.31;;;15.30;100.00
47815;BME280;33579;50.058;18.130;2022-09-06T05:30:47;99867.41;;;15.34;100.00
47815;BME280;33579;50.058;18.130;2022-09-06T05:31:48;99871.84;;;15.33;100.00
47815;BME280;33579;50.058;18.130;2022-09-06T05:32:50;99872.41;;;15.37;100.00
47815;BME280;33579;50.058;18.130;2022-09-06T05:33:52;99873.63;;;15.42;100.00
47815;BME280;33579;50.058;18.130;2022-09-06T05:34:54;99878.03;;;15.52;100.00
47815;BME280;33579;50.058;18.130;2022-09-06T05:35:56;99874.69;;;15.68;100.00
47815;BME280;33579;50.058;18.130;2022-09-06T05:36:57;99881.44;;;15.80;100.00
47815;BME280;33579;50.058;18.130;2022-09-06T05:37:59;99881.25;;;15.92;100.00
47815;BME280;33579;50.058;18.130;2022-09-06T05:39:00;99882.69;;;16.04;100.00
47815;BME280;33579;50.058;18.130;2022-09-06T05:40:02;99883.44;;;16.14;99.33
47815;BME280;33579;50.058;18.130;2022-09-06T05:41:04;99879.88;;;16.24;99.58
47815;BME280;33579;50.058;18.130;2022-09-06T05:42:05;99877.75;;;16.27;99.99
47815;BME280;33579;50.058;18.130;2022-09-06T05:43:07;99882.91;;;16.29;99.86
47815;BME280;33579;50.058;18.130;2022-09-06T05:44:08;99882.19;;;16.19;100.00
47815;BME280;33579;50.058;18.130;2022-09-06T05:45:10;99881.34;;;16.18;100.00
47815;BME280;33579;50.058;18.130;2022-09-06T05:46:11;99882.31;;;16.17;100.00
47815;BME280;33579;50.058;18.130;2022-09-06T05:47:13;99876.16;;;16.16;100.00
47815;BME280;33579;50.058;18.130;2022-09-06T05:48:15;99879.00;;;16.15;100.00
47815;BME280;33579;50.058;18.130;2022-09-06T05:49:16;99876.66;;;16.12;100.00
47815;BME280;33579;50.058;18.130;2022-09-06T05:50:18;99877.31;;;16.14;100.00
47815;BME280;33579;50.058;18.130;2022-09-06T05:51:20;99871.38;;;16.20;100.00
47815;BME280;33579;50.058;18.130;2022-09-06T05:52:22;99870.13;;;16.24;100.00
47815;BME280;33579;50.058;18.130;2022-09-06T05:53:23;99874.25;;;16.27;100.00